createdAt,value
2018-07-22T00:01:35.972Z,67.50
2018-07-22T00:06:39.629Z,67.37
2018-07-22T00:11:43.210Z,67.82
2018-07-22T00:16:46.697Z,67.45
2018-07-22T00:21:50.252Z,68.63
2018-07-22T00:26:54.456Z,69.53
2018-07-22T00:31:58.030Z,68.41
2018-07-22T00:37:01.629Z,67.98
2018-07-22T00:42:05.228Z,68.64
2018-07-22T00:47:08.757Z,69.75
2018-07-22T00:52:12.294Z,68.82
2018-07-22T00:57:15.821Z,69.85
2018-07-22T01:02:19.509Z,69.97
2018-07-22T01:07:23.705Z,70.92
2018-07-22T01:12:27.287Z,71.20
2018-07-22T01:17:31.956Z,72.10
2018-07-22T01:22:35.853Z,70.58
2018-07-22T01:27:39.414Z,70.39
2018-07-22T01:32:43.776Z,69.81
2018-07-22T01:37:47.300Z,69.55
2018-07-22T01:42:50.833Z,69.25
2018-07-22T01:47:55.762Z,69.26
2018-07-22T01:52:59.402Z,70.13
2018-07-22T01:58:02.897Z,68.87
2018-07-22T02:03:08.460Z,69.42
2018-07-22T02:08:11.913Z,68.56
2018-07-22T02:13:15.526Z,68.49
2018-07-22T02:18:19.540Z,68.56
2018-07-22T02:23:23.604Z,67.84
2018-07-22T02:28:27.125Z,67.71
2018-07-22T02:33:30.686Z,68.59
2018-07-22T02:38:34.177Z,68.01
2018-07-22T02:43:38.201Z,68.39
2018-07-22T02:48:41.865Z,68.69
2018-07-22T02:53:45.567Z,69.90
2018-07-22T02:58:49.097Z,69.59
2018-07-22T03:03:52.669Z,69.81
2018-07-22T03:08:57.205Z,71.33
2018-07-22T03:14:01.109Z,72.81
2018-07-22T03:19:04.769Z,72.34
2018-07-22T03:24:08.329Z,72.26
2018-07-22T03:29:12.505Z,72.69
2018-07-22T03:34:16.210Z,73.09
2018-07-22T03:39:19.751Z,72.14
2018-07-22T03:44:24.476Z,72.16
2018-07-22T03:49:27.990Z,72.45
2018-07-22T03:54:33.874Z,73.64
2018-07-22T03:59:38.336Z,74.01
2018-07-22T04:04:41.884Z,74.80
2018-07-22T04:09:45.519Z,73.70
2018-07-22T04:14:49.496Z,73.92
2018-07-22T04:19:53.150Z,74.21
2018-07-22T04:24:57.773Z,73.78
2018-07-22T04:30:01.538Z,73.44
2018-07-22T04:35:05.161Z,73.45
2018-07-22T04:40:08.671Z,74.37
2018-07-22T04:45:12.260Z,74.24
2018-07-22T04:50:16.096Z,73.51
2018-07-22T04:55:19.669Z,73.52
2018-07-22T05:00:25.094Z,73.84
2018-07-22T05:05:28.731Z,73.21
2018-07-22T05:10:32.456Z,73.43
2018-07-22T05:15:36.036Z,73.77
2018-07-22T05:20:40.052Z,73.44
2018-07-22T05:25:43.648Z,73.25
2018-07-22T05:30:47.272Z,73.55
2018-07-22T05:35:50.898Z,71.70
2018-07-22T05:40:54.396Z,71.73
2018-07-22T05:45:57.958Z,71.41
2018-07-22T05:51:01.504Z,71.58
2018-07-22T05:56:05.095Z,71.78
2018-07-22T06:01:08.723Z,70.61
2018-07-22T06:06:12.965Z,70.41
2018-07-22T06:11:16.503Z,70.20
2018-07-22T06:16:20.690Z,69.40
2018-07-22T06:21:24.187Z,68.65
2018-07-22T06:26:28.203Z,68.36
2018-07-22T06:31:31.747Z,68.14
2018-07-22T06:36:35.938Z,68.27
2018-07-22T06:41:39.706Z,67.09
2018-07-22T06:46:43.379Z,66.56
2018-07-22T06:51:46.904Z,65.94
2018-07-22T06:56:50.498Z,66.30
2018-07-22T07:01:54.031Z,66.17
2018-07-22T07:06:57.608Z,65.18
2018-07-22T07:12:01.259Z,65.06
2018-07-22T07:17:04.849Z,64.41
2018-07-22T07:22:08.454Z,64.73
2018-07-22T07:27:12.921Z,64.93
2018-07-22T07:32:17.099Z,63.54
2018-07-22T07:37:21.490Z,64.47
2018-07-22T07:42:25.004Z,63.48
2018-07-22T07:47:29.164Z,62.51
2018-07-22T07:52:32.672Z,63.19
2018-07-22T07:57:37.448Z,63.31
2018-07-22T08:02:40.977Z,62.27
2018-07-22T08:07:44.591Z,62.54
2018-07-22T08:12:48.228Z,61.86
2018-07-22T08:17:51.796Z,61.22
2018-07-22T08:22:55.354Z,61.37
2018-07-22T08:27:58.934Z,60.79
2018-07-22T08:33:02.471Z,60.36
2018-07-22T08:38:06.094Z,59.86
2018-07-22T08:43:09.661Z,59.39
2018-07-22T08:48:13.213Z,58.75
2018-07-22T08:53:16.789Z,58.27
2018-07-22T08:58:20.475Z,57.59
2018-07-22T09:03:24.620Z,57.20
2018-07-22T09:08:28.140Z,56.36
2018-07-22T09:13:32.584Z,56.46
2018-07-22T09:18:36.513Z,54.74
2018-07-22T09:23:40.108Z,54.37
2018-07-22T09:28:43.653Z,53.29
2018-07-22T09:33:47.298Z,52.87
2018-07-22T09:38:50.864Z,51.93
2018-07-22T09:43:54.381Z,50.86
2018-07-22T09:48:57.969Z,51.66
2018-07-22T09:54:02.565Z,50.85
2018-07-22T09:59:06.271Z,49.05
2018-07-22T10:04:09.874Z,48.42
2018-07-22T10:09:13.464Z,48.86
2018-07-22T10:14:17.008Z,46.67
2018-07-22T10:19:20.645Z,47.24
2018-07-22T10:24:24.289Z,47.76
2018-07-22T10:29:28.042Z,45.34
2018-07-22T10:34:31.539Z,44.68
2018-07-22T10:39:35.084Z,45.24
2018-07-22T10:44:39.464Z,44.07
2018-07-22T10:49:43.824Z,43.52
2018-07-22T10:54:47.822Z,43.44
2018-07-22T10:59:51.387Z,42.85
2018-07-22T11:04:54.906Z,42.21
2018-07-22T11:09:58.886Z,41.37
2018-07-22T11:15:02.608Z,39.90
2018-07-22T11:20:06.289Z,39.34
2018-07-22T11:25:09.816Z,39.59
2018-07-22T11:30:13.532Z,39.65
2018-07-22T11:35:17.120Z,38.15
2018-07-22T11:40:20.669Z,37.01
2018-07-22T11:45:24.331Z,37.28
2018-07-22T11:50:27.927Z,38.71
2018-07-22T11:55:31.309Z,37.14
2018-07-22T12:00:35.824Z,39.17
2018-07-22T12:05:39.475Z,38.74
2018-07-22T12:10:43.772Z,37.55
2018-07-22T12:15:47.335Z,37.75
2018-07-22T12:20:50.952Z,36.99
2018-07-22T12:25:54.770Z,36.97
2018-07-22T12:30:58.320Z,34.88
2018-07-22T12:36:01.904Z,36.22
2018-07-22T12:41:05.764Z,37.12
2018-07-22T12:46:09.701Z,36.89
2018-07-22T12:51:13.193Z,37.37
2018-07-22T12:56:17.310Z,38.00
2018-07-22T13:01:20.875Z,36.54
2018-07-22T13:06:27.932Z,36.22
2018-07-22T13:11:31.415Z,36.72
2018-07-22T13:16:34.865Z,36.14
2018-07-22T13:21:38.441Z,36.60
2018-07-22T13:26:42.143Z,35.38
2018-07-22T13:31:45.777Z,36.28
2018-07-22T13:36:49.318Z,37.04
2018-07-22T13:41:52.811Z,37.51
2018-07-22T13:46:56.265Z,37.73
2018-07-22T13:51:59.943Z,39.02
2018-07-22T13:57:03.408Z,39.50
2018-07-22T14:02:07.888Z,38.52
2018-07-22T14:07:11.999Z,37.73
2018-07-22T14:12:17.400Z,37.06
2018-07-22T14:17:20.924Z,37.33
2018-07-22T14:22:24.931Z,38.06
2018-07-22T14:27:28.441Z,37.34
2018-07-22T14:32:32.005Z,35.88
2018-07-22T14:37:36.133Z,35.30
2018-07-22T14:42:39.838Z,35.98
2018-07-22T14:47:43.567Z,35.99
2018-07-22T14:52:47.093Z,36.85
2018-07-22T14:57:50.557Z,37.12
2018-07-22T15:02:54.225Z,36.70
2018-07-22T15:07:57.736Z,37.85
2018-07-22T15:13:01.709Z,36.88
2018-07-22T15:18:05.180Z,37.54
2018-07-22T15:23:09.778Z,36.12
2018-07-22T15:28:13.391Z,38.29
2018-07-22T15:33:16.912Z,39.53
2018-07-22T15:38:20.579Z,38.01
2018-07-22T15:43:24.150Z,37.39
2018-07-22T15:48:27.764Z,37.52
2018-07-22T15:53:31.324Z,39.10
2018-07-22T15:58:34.876Z,39.22
2018-07-22T16:03:38.473Z,38.72
2018-07-22T16:08:42.598Z,38.64
2018-07-22T16:13:46.124Z,37.93
2018-07-22T16:18:49.805Z,38.38
2018-07-22T16:23:53.321Z,38.35
2018-07-22T16:28:56.897Z,38.50
2018-07-22T16:34:00.471Z,38.15
2018-07-22T16:39:06.284Z,38.88
2018-07-22T16:44:09.811Z,38.78
2018-07-22T16:49:13.367Z,40.02
2018-07-22T16:54:17.143Z,40.97
2018-07-22T16:59:20.709Z,41.07
2018-07-22T17:04:25.295Z,40.18
2018-07-22T17:09:28.868Z,41.29
2018-07-22T17:14:32.443Z,40.03
2018-07-22T17:19:36.192Z,40.92
2018-07-22T17:24:39.732Z,40.08
2018-07-22T17:29:43.203Z,39.23
2018-07-22T17:34:46.743Z,39.88
2018-07-22T17:39:50.271Z,39.26
2018-07-22T17:44:53.783Z,39.62
2018-07-22T17:49:57.664Z,39.91
2018-07-22T17:55:01.193Z,40.19
2018-07-22T18:00:05.294Z,40.60
2018-07-22T18:05:08.933Z,40.63
2018-07-22T18:10:12.456Z,41.63
2018-07-22T18:15:16.184Z,41.91
2018-07-22T18:20:19.816Z,43.06
2018-07-22T18:25:23.362Z,43.63
2018-07-22T18:30:34.903Z,43.76
2018-07-22T18:35:38.632Z,43.35
2018-07-22T18:40:42.378Z,43.90
2018-07-22T18:45:45.992Z,44.27
2018-07-22T18:50:49.525Z,45.03
2018-07-22T18:55:53.120Z,45.66
2018-07-22T19:00:56.582Z,46.78
2018-07-22T19:06:01.033Z,45.88
2018-07-22T19:11:04.514Z,48.09
2018-07-22T19:16:08.060Z,48.96
2018-07-22T19:21:11.715Z,49.68
2018-07-22T19:26:15.228Z,50.99
2018-07-22T19:31:19.033Z,51.68
2018-07-22T19:36:22.675Z,52.07
2018-07-22T19:41:26.661Z,52.96
2018-07-22T19:46:30.342Z,52.99
2018-07-22T19:51:33.961Z,52.89
2018-07-22T19:56:37.979Z,54.44
2018-07-22T20:01:42.727Z,54.52
2018-07-22T20:06:46.897Z,55.79
2018-07-22T20:11:50.527Z,55.40
2018-07-22T20:16:54.501Z,55.18
2018-07-22T20:21:58.038Z,55.60
2018-07-22T20:27:02.219Z,55.97
2018-07-22T20:32:06.428Z,57.08
2018-07-22T20:37:10.638Z,56.89
2018-07-22T20:42:14.181Z,56.72
2018-07-22T20:47:17.805Z,57.17
2018-07-22T20:52:21.998Z,57.43
2018-07-22T20:57:25.650Z,56.17
2018-07-22T21:02:29.645Z,57.64
2018-07-22T21:07:33.176Z,57.81
2018-07-22T21:12:53.556Z,58.10
2018-07-22T21:17:57.376Z,58.71
2018-07-22T21:23:00.903Z,57.85
2018-07-22T21:28:04.571Z,58.72
2018-07-22T21:33:08.974Z,59.34
2018-07-22T21:38:12.540Z,60.37
2018-07-22T21:43:16.038Z,61.74
2018-07-22T21:48:19.689Z,61.66
2018-07-22T21:53:23.714Z,61.79
2018-07-22T21:58:27.352Z,63.02
2018-07-22T22:03:30.980Z,62.91
2018-07-22T22:08:34.511Z,64.41
2018-07-22T22:13:38.047Z,63.96
2018-07-22T22:18:41.581Z,62.74
2018-07-22T22:23:45.101Z,64.17
2018-07-22T22:28:48.890Z,66.24
2018-07-22T22:33:52.736Z,67.79
2018-07-22T22:38:56.425Z,66.10
2018-07-22T22:44:00.016Z,65.32
2018-07-22T22:49:03.556Z,65.73
2018-07-22T22:54:07.721Z,65.67
2018-07-22T22:59:19.297Z,67.04
2018-07-22T23:04:22.796Z,66.92
2018-07-22T23:09:26.348Z,66.88
2018-07-22T23:14:30.054Z,66.37
2018-07-22T23:19:33.594Z,66.70
2018-07-22T23:24:37.100Z,67.85
2018-07-22T23:29:42.610Z,67.74
2018-07-22T23:34:46.973Z,66.84
2018-07-22T23:39:50.534Z,66.73
2018-07-22T23:44:54.137Z,67.15
2018-07-22T23:49:57.774Z,68.08
2018-07-22T23:55:02.234Z,67.41
